createdAt,value
2019-04-04T00:01:21.089Z,67.36
2019-04-04T00:04:10.220Z,67.51
2019-04-04T00:06:59.426Z,67.46
2019-04-04T00:09:48.653Z,67.60
2019-04-04T00:12:39.100Z,67.61
2019-04-04T00:15:28.390Z,67.58
2019-04-04T00:18:18.048Z,67.60
2019-04-04T00:21:07.300Z,67.48
2019-04-04T00:23:56.376Z,67.58
2019-04-04T00:26:45.927Z,67.64
2019-04-04T00:29:35.097Z,67.64
2019-04-04T00:32:24.306Z,67.74
2019-04-04T00:35:13.536Z,67.76
2019-04-04T00:38:06.626Z,67.74
2019-04-04T00:40:53.927Z,67.70
2019-04-04T00:43:42.716Z,67.83
2019-04-04T00:46:32.457Z,67.71
2019-04-04T00:49:21.635Z,67.81
2019-04-04T00:52:10.948Z,67.86
2019-04-04T00:55:00.874Z,67.86
2019-04-04T00:57:50.872Z,67.93
2019-04-04T01:00:40.527Z,67.97
2019-04-04T01:03:30.034Z,67.90
2019-04-04T01:06:21.557Z,67.90
2019-04-04T01:09:13.104Z,67.92
2019-04-04T01:12:01.859Z,67.87
2019-04-04T01:14:51.198Z,67.96
2019-04-04T01:17:41.120Z,68.01
2019-04-04T01:20:30.721Z,68.10
2019-04-04T01:23:20.485Z,68.10
2019-04-04T01:26:09.471Z,68.06
2019-04-04T01:28:58.309Z,68.02
2019-04-04T01:31:47.292Z,68.11
2019-04-04T01:34:36.867Z,68.15
2019-04-04T01:37:27.795Z,68.23
2019-04-04T01:40:18.017Z,68.09
2019-04-04T01:43:09.253Z,68.14
2019-04-04T01:45:58.719Z,68.12
2019-04-04T01:48:49.969Z,68.10
2019-04-04T01:51:39.162Z,68.17
2019-04-04T01:54:29.985Z,68.21
2019-04-04T01:57:19.804Z,68.21
2019-04-04T02:00:10.472Z,68.14
2019-04-04T02:03:00.253Z,68.27
2019-04-04T02:05:49.131Z,68.17
2019-04-04T02:08:38.072Z,68.17
2019-04-04T02:11:28.049Z,68.28
2019-04-04T02:14:19.478Z,68.17
2019-04-04T02:17:08.608Z,68.26
2019-04-04T02:19:57.837Z,68.26
2019-04-04T02:22:47.557Z,68.27
2019-04-04T02:25:36.587Z,68.21
2019-04-04T02:28:25.659Z,68.41
2019-04-04T02:31:15.771Z,68.27
2019-04-04T02:34:06.444Z,68.36
2019-04-04T02:36:58.065Z,68.39
2019-04-04T02:39:47.769Z,68.31
2019-04-04T02:42:37.229Z,68.37
2019-04-04T02:45:26.722Z,68.39
2019-04-04T02:48:16.231Z,68.40
2019-04-04T02:51:08.026Z,68.31
2019-04-04T02:53:57.585Z,68.37
2019-04-04T02:56:48.566Z,68.44
2019-04-04T02:59:38.469Z,68.43
2019-04-04T03:02:28.849Z,68.43
2019-04-04T03:05:20.130Z,68.40
2019-04-04T03:08:09.098Z,68.48
2019-04-04T03:10:58.994Z,68.50
2019-04-04T03:13:48.627Z,68.39
2019-04-04T03:16:38.133Z,68.44
2019-04-04T03:19:27.822Z,68.45
2019-04-04T03:22:17.634Z,68.41
2019-04-04T03:25:06.461Z,68.53
2019-04-04T03:27:58.248Z,68.64
2019-04-04T03:30:54.358Z,68.56
2019-04-04T03:33:37.894Z,68.55
2019-04-04T03:36:28.050Z,68.47
2019-04-04T03:39:19.241Z,68.51
2019-04-04T03:42:08.350Z,68.57
2019-04-04T03:44:58.025Z,68.54
2019-04-04T03:47:49.402Z,68.52
2019-04-04T03:50:39.283Z,68.52
2019-04-04T03:53:29.176Z,68.62
2019-04-04T03:56:19.086Z,68.57
2019-04-04T03:59:08.752Z,68.53
2019-04-04T04:01:58.764Z,68.53
2019-04-04T04:04:47.831Z,68.50
2019-04-04T04:07:37.098Z,68.51
2019-04-04T04:10:26.706Z,68.62
2019-04-04T04:13:17.300Z,68.50
2019-04-04T04:16:11.987Z,68.60
2019-04-04T04:19:01.627Z,68.59
2019-04-04T04:21:50.406Z,68.70
2019-04-04T04:24:39.160Z,68.69
2019-04-04T04:27:29.231Z,68.72
2019-04-04T04:30:18.697Z,68.68
2019-04-04T04:33:08.137Z,68.58
2019-04-04T04:35:57.064Z,68.55
2019-04-04T04:38:48.312Z,68.58
2019-04-04T04:41:37.710Z,68.55
2019-04-04T04:44:26.620Z,68.50
2019-04-04T04:47:16.740Z,68.55
2019-04-04T04:50:09.658Z,68.58
2019-04-04T04:52:57.051Z,68.49
2019-04-04T04:55:45.805Z,68.53
2019-04-04T04:58:34.851Z,68.44
2019-04-04T05:01:24.030Z,68.48
2019-04-04T05:04:14.325Z,68.47
2019-04-04T05:07:07.062Z,68.48
2019-04-04T05:09:55.163Z,68.57
2019-04-04T05:12:44.350Z,68.51
2019-04-04T05:15:33.632Z,68.58
2019-04-04T05:18:22.716Z,68.63
2019-04-04T05:21:24.403Z,68.51
2019-04-04T05:24:04.342Z,68.57
2019-04-04T05:26:53.979Z,68.52
2019-04-04T05:29:44.905Z,68.61
2019-04-04T05:32:34.482Z,68.56
2019-04-04T05:35:24.240Z,68.55
2019-04-04T05:38:13.699Z,68.60
2019-04-04T05:41:03.433Z,68.55
2019-04-04T05:43:54.037Z,68.58
2019-04-04T05:46:43.415Z,68.47
2019-04-04T05:49:33.085Z,68.49
2019-04-04T05:52:23.695Z,68.47
2019-04-04T05:55:14.941Z,68.47
2019-04-04T05:58:08.513Z,69.58
2019-04-04T06:01:01.522Z,69.22
2019-04-04T06:03:48.789Z,68.95
2019-04-04T06:06:38.229Z,68.82
2019-04-04T06:09:29.484Z,70.85
2019-04-04T06:12:19.911Z,71.03
2019-04-04T06:15:09.724Z,70.13
2019-04-04T06:17:59.281Z,69.70
2019-04-04T06:20:49.209Z,69.46
2019-04-04T06:23:39.546Z,69.21
2019-04-04T06:26:29.140Z,69.10
2019-04-04T06:29:19.267Z,68.98
2019-04-04T06:32:08.734Z,68.98
2019-04-04T06:34:58.413Z,69.06
2019-04-04T06:37:51.492Z,68.92
2019-04-04T06:40:42.994Z,68.95
2019-04-04T06:43:32.702Z,68.90
2019-04-04T06:46:23.019Z,68.83
2019-04-04T06:49:13.073Z,68.73
2019-04-04T06:52:02.686Z,68.69
2019-04-04T06:54:52.403Z,68.57
2019-04-04T06:57:43.975Z,68.55
2019-04-04T07:00:33.121Z,68.54
2019-04-04T07:03:23.033Z,69.68
2019-04-04T07:06:12.994Z,69.37
2019-04-04T07:09:04.886Z,69.13
2019-04-04T07:11:54.410Z,68.89
2019-04-04T07:14:46.254Z,69.09
2019-04-04T07:17:39.919Z,69.00
2019-04-04T07:20:28.863Z,68.90
2019-04-04T07:23:18.287Z,68.68
2019-04-04T07:26:09.591Z,68.67
2019-04-04T07:29:01.037Z,68.73
2019-04-04T07:31:54.328Z,68.63
2019-04-04T07:34:45.812Z,68.62
2019-04-04T07:37:56.636Z,68.67
2019-04-04T07:40:44.181Z,68.69
2019-04-04T07:43:34.311Z,68.70
2019-04-04T07:46:24.547Z,68.76
2019-04-04T07:49:14.824Z,68.76
2019-04-04T07:52:03.977Z,68.65
2019-04-04T07:54:52.927Z,68.65
2019-04-04T07:57:42.094Z,68.81
2019-04-04T08:00:31.398Z,68.48
2019-04-04T08:03:21.147Z,68.63
2019-04-04T08:06:10.387Z,68.41
2019-04-04T08:08:59.888Z,68.36
2019-04-04T08:11:48.773Z,68.27
2019-04-04T08:14:37.830Z,68.21
2019-04-04T08:17:27.009Z,68.24
2019-04-04T08:20:16.989Z,68.10
2019-04-04T08:23:06.233Z,68.09
2019-04-04T08:25:55.373Z,68.09
2019-04-04T08:28:45.042Z,67.93
2019-04-04T08:31:34.297Z,67.76
2019-04-04T08:36:56.540Z,67.58
2019-04-04T08:39:45.465Z,67.86
2019-04-04T08:42:35.006Z,67.67
2019-04-04T08:45:23.968Z,67.49
2019-04-04T08:48:13.124Z,67.42
2019-04-04T08:51:02.842Z,67.41
2019-04-04T08:53:51.730Z,67.36
2019-04-04T08:56:41.127Z,67.33
2019-04-04T08:59:30.220Z,67.34
2019-04-04T09:02:19.871Z,67.29
2019-04-04T09:05:12.108Z,67.30
2019-04-04T09:08:00.597Z,67.28
2019-04-04T09:10:49.408Z,67.25
2019-04-04T09:13:39.139Z,67.14
2019-04-04T09:16:28.096Z,66.99
2019-04-04T09:19:17.650Z,67.37
2019-04-04T09:22:10.621Z,67.63
2019-04-04T09:24:57.613Z,67.68
2019-04-04T09:27:46.989Z,67.86
2019-04-04T09:30:35.846Z,67.73
2019-04-04T09:33:25.210Z,67.42
2019-04-04T09:36:14.292Z,67.02
2019-04-04T09:39:04.658Z,67.30
2019-04-04T09:41:53.773Z,67.63
2019-04-04T09:44:43.501Z,67.76
2019-04-04T09:47:32.841Z,67.51
2019-04-04T09:50:21.851Z,67.12
2019-04-04T09:53:11.103Z,66.45
2019-04-04T09:56:00.045Z,66.35
2019-04-04T09:58:49.790Z,65.85
2019-04-04T10:01:39.335Z,65.56
2019-04-04T10:04:28.823Z,65.42
2019-04-04T10:07:18.600Z,64.52
2019-04-04T10:10:08.259Z,64.33
2019-04-04T10:12:59.671Z,63.94
2019-04-04T10:15:50.925Z,64.35
2019-04-04T10:18:40.490Z,63.73
2019-04-04T10:21:30.967Z,64.11
2019-04-04T10:24:23.147Z,63.70
2019-04-04T10:27:12.421Z,63.94
2019-04-04T10:30:01.983Z,63.85
2019-04-04T10:32:52.869Z,63.53
2019-04-04T10:35:42.483Z,63.86
2019-04-04T10:38:33.177Z,63.54
2019-04-04T10:41:25.796Z,62.86
2019-04-04T10:44:15.621Z,62.76
2019-04-04T10:47:08.216Z,63.01
2019-04-04T10:49:58.564Z,62.02
2019-04-04T10:52:54.536Z,61.59
2019-04-04T10:55:44.412Z,61.50
2019-04-04T10:58:37.082Z,61.87
2019-04-04T11:01:27.357Z,62.10
2019-04-04T11:04:17.148Z,62.26
2019-04-04T11:07:09.872Z,61.61
2019-04-04T11:10:01.105Z,61.68
2019-04-04T11:12:52.415Z,61.38
2019-04-04T11:15:43.637Z,61.39
2019-04-04T11:18:46.571Z,61.21
2019-04-04T11:21:35.698Z,60.55
2019-04-04T11:24:24.994Z,60.65
2019-04-04T11:27:17.651Z,60.02
2019-04-04T11:30:08.598Z,59.12
2019-04-04T11:32:57.926Z,58.65
2019-04-04T11:35:47.784Z,58.14
2019-04-04T11:38:39.203Z,57.93
2019-04-04T11:41:31.375Z,55.74
2019-04-04T11:44:21.122Z,55.93
2019-04-04T11:47:12.386Z,56.16
2019-04-04T11:50:01.488Z,55.88
2019-04-04T11:52:51.094Z,54.16
2019-04-04T11:55:40.891Z,54.16
2019-04-04T11:58:30.325Z,54.25
2019-04-04T12:01:21.794Z,54.62
2019-04-04T12:04:13.525Z,54.19
2019-04-04T12:07:03.610Z,54.52
2019-04-04T12:10:06.442Z,54.64
2019-04-04T12:12:47.525Z,54.83
2019-04-04T12:15:39.098Z,54.67
2019-04-04T12:18:30.029Z,54.58
2019-04-04T12:21:19.643Z,54.68
2019-04-04T12:24:09.409Z,55.02
2019-04-04T12:27:00.119Z,54.86
2019-04-04T12:29:53.656Z,55.19
2019-04-04T12:32:44.540Z,55.21
2019-04-04T12:35:33.977Z,53.87
2019-04-04T12:38:25.966Z,54.55
2019-04-04T12:41:17.455Z,54.94
2019-04-04T12:44:07.494Z,54.88
2019-04-04T12:46:59.529Z,55.06
2019-04-04T12:49:51.677Z,55.21
2019-04-04T12:52:41.833Z,50.76
2019-04-04T12:55:32.142Z,52.27
2019-04-04T12:58:26.697Z,52.31
2019-04-04T13:01:16.135Z,52.88
2019-04-04T13:04:05.908Z,53.64
2019-04-04T13:06:55.314Z,53.68
2019-04-04T13:09:45.044Z,48.69
2019-04-04T13:12:33.949Z,50.55
2019-04-04T13:15:23.580Z,51.68
2019-04-04T13:18:12.983Z,52.92
2019-04-04T13:21:02.674Z,53.63
2019-04-04T13:23:52.339Z,53.80
2019-04-04T13:26:42.797Z,53.44
2019-04-04T13:29:32.574Z,53.61
2019-04-04T13:32:22.339Z,53.54
2019-04-04T13:35:11.670Z,54.08
2019-04-04T13:38:01.796Z,54.67
2019-04-04T13:40:52.087Z,54.80
2019-04-04T13:43:41.285Z,55.03
2019-04-04T13:46:30.992Z,55.29
2019-04-04T13:49:20.561Z,55.33
2019-04-04T13:52:11.723Z,54.91
2019-04-04T13:55:01.751Z,50.65
2019-04-04T13:57:51.503Z,52.71
2019-04-04T14:00:43.674Z,53.74
2019-04-04T14:03:34.450Z,54.11
2019-04-04T14:06:25.031Z,54.58
2019-04-04T14:09:15.140Z,55.19
2019-04-04T14:12:05.362Z,55.12
2019-04-04T14:14:55.008Z,55.35
2019-04-04T14:17:44.630Z,55.83
2019-04-04T14:20:35.083Z,56.17
2019-04-04T14:23:24.350Z,56.39
2019-04-04T14:26:19.026Z,56.32
2019-04-04T14:29:11.112Z,56.55
2019-04-04T14:32:01.364Z,56.60
2019-04-04T14:34:51.041Z,55.83
2019-04-04T14:37:40.333Z,56.39
2019-04-04T14:40:30.252Z,56.24
2019-04-04T14:43:19.686Z,56.22
2019-04-04T14:46:09.136Z,56.33
2019-04-04T14:48:58.677Z,56.65
2019-04-04T14:51:48.192Z,57.03
2019-04-04T14:54:39.455Z,57.36
2019-04-04T14:57:29.316Z,57.87
2019-04-04T15:00:21.413Z,57.37
2019-04-04T15:03:11.840Z,57.23
2019-04-04T15:06:03.901Z,57.20
2019-04-04T15:08:54.716Z,57.03
2019-04-04T15:11:44.559Z,57.14
2019-04-04T15:14:39.512Z,57.58
2019-04-04T15:17:35.699Z,57.17
2019-04-04T15:20:27.619Z,57.20
2019-04-04T15:23:17.862Z,57.01
2019-04-04T15:26:17.289Z,57.25
2019-04-04T15:29:11.431Z,57.37
2019-04-04T15:32:04.515Z,57.55
2019-04-04T15:34:54.836Z,57.67
2019-04-04T15:37:50.424Z,58.31
2019-04-04T15:40:40.517Z,58.19
2019-04-04T15:43:30.213Z,57.99
2019-04-04T15:46:21.470Z,58.26
2019-04-04T15:49:10.920Z,58.27
2019-04-04T15:52:02.562Z,58.11
2019-04-04T15:54:55.079Z,58.54
2019-04-04T15:57:43.999Z,58.25
2019-04-04T16:00:34.788Z,58.25
2019-04-04T16:03:24.600Z,58.56
2019-04-04T16:06:14.455Z,58.99
2019-04-04T16:09:05.643Z,58.93
2019-04-04T16:11:55.256Z,59.31
2019-04-04T16:14:45.225Z,59.70
2019-04-04T16:17:34.593Z,59.73
2019-04-04T16:20:24.316Z,59.41
2019-04-04T16:23:13.632Z,59.64
2019-04-04T16:26:03.345Z,59.80
2019-04-04T16:28:53.002Z,59.95
2019-04-04T16:31:41.984Z,60.02
2019-04-04T16:34:31.633Z,60.33
2019-04-04T16:37:21.093Z,59.99
2019-04-04T16:40:10.106Z,60.28
2019-04-04T16:42:59.414Z,60.12
2019-04-04T16:45:49.157Z,60.12
2019-04-04T16:48:39.364Z,60.09
2019-04-04T16:51:30.310Z,60.32
2019-04-04T16:54:19.193Z,60.50
2019-04-04T16:57:08.759Z,60.40
2019-04-04T17:00:01.343Z,60.52
2019-04-04T17:02:51.234Z,60.55
2019-04-04T17:05:40.390Z,60.95
2019-04-04T17:08:29.564Z,60.92
2019-04-04T17:11:19.720Z,61.17
2019-04-04T17:14:09.207Z,60.92
2019-04-04T17:17:00.514Z,61.02
2019-04-04T17:19:50.286Z,61.27
2019-04-04T17:22:39.563Z,61.50
2019-04-04T17:25:28.838Z,61.57
2019-04-04T17:28:18.511Z,61.57
2019-04-04T17:31:08.482Z,61.82
2019-04-04T17:33:58.699Z,61.71
2019-04-04T17:36:47.966Z,61.81
2019-04-04T17:39:37.647Z,61.93
2019-04-04T17:42:32.088Z,62.14
2019-04-04T17:45:19.601Z,62.17
2019-04-04T17:48:08.553Z,62.27
2019-04-04T17:50:57.590Z,62.46
2019-04-04T17:53:46.973Z,62.45
2019-04-04T17:56:38.834Z,62.50
2019-04-04T17:59:30.392Z,62.55
2019-04-04T18:02:20.101Z,62.54
2019-04-04T18:05:09.070Z,62.64
2019-04-04T18:07:58.566Z,62.60
2019-04-04T18:10:48.266Z,62.58
2019-04-04T18:13:37.652Z,62.70
2019-04-04T18:16:27.290Z,62.71
2019-04-04T18:19:17.207Z,62.69
2019-04-04T18:22:07.310Z,62.81
2019-04-04T18:24:57.313Z,62.82
2019-04-04T18:27:46.346Z,62.86
2019-04-04T18:30:35.636Z,62.98
2019-04-04T18:33:25.294Z,63.00
2019-04-04T18:36:15.110Z,63.03
2019-04-04T18:39:05.534Z,63.12
2019-04-04T18:41:54.989Z,63.03
2019-04-04T18:44:44.849Z,63.12
2019-04-04T18:47:34.188Z,63.17
2019-04-04T18:50:23.529Z,63.12
2019-04-04T18:53:12.818Z,63.28
2019-04-04T18:56:02.057Z,63.31
2019-04-04T18:58:51.034Z,63.34
2019-04-04T19:01:40.647Z,63.40
2019-04-04T19:04:30.353Z,63.47
2019-04-04T19:07:20.040Z,63.52
2019-04-04T19:10:09.207Z,63.59
2019-04-04T19:13:05.233Z,63.47
2019-04-04T19:15:50.691Z,63.59
2019-04-04T19:18:40.457Z,63.63
2019-04-04T19:21:30.149Z,63.65
2019-04-04T19:24:21.026Z,63.61
2019-04-04T19:27:11.255Z,63.66
2019-04-04T19:30:00.281Z,63.73
2019-04-04T19:32:49.688Z,63.73
2019-04-04T19:35:39.501Z,63.85
2019-04-04T19:38:29.022Z,63.86
2019-04-04T19:41:19.821Z,63.90
2019-04-04T19:44:09.398Z,63.96
2019-04-04T19:46:59.646Z,63.99
2019-04-04T19:49:51.143Z,64.09
2019-04-04T19:52:41.040Z,64.13
2019-04-04T19:55:30.254Z,64.21
2019-04-04T19:58:21.254Z,64.24
2019-04-04T20:01:11.253Z,64.33
2019-04-04T20:04:01.006Z,64.31
2019-04-04T20:06:50.592Z,64.40
2019-04-04T20:09:39.894Z,64.47
2019-04-04T20:12:29.647Z,64.48
2019-04-04T20:15:19.558Z,64.54
2019-04-04T20:18:09.566Z,64.60
2019-04-04T20:21:01.497Z,64.60
2019-04-04T20:23:55.478Z,64.61
2019-04-04T20:26:50.074Z,64.63
2019-04-04T20:29:44.685Z,64.73
2019-04-04T20:32:38.478Z,64.73
2019-04-04T20:35:29.799Z,64.67
2019-04-04T20:38:27.771Z,64.63
2019-04-04T20:41:29.518Z,64.86
2019-04-04T20:44:22.554Z,64.89
2019-04-04T20:47:22.249Z,64.92
2019-04-04T20:50:13.063Z,64.87
2019-04-04T20:53:03.352Z,64.97
2019-04-04T20:55:53.138Z,65.10
2019-04-04T20:58:43.282Z,65.09
2019-04-04T21:01:34.076Z,65.14
2019-04-04T21:04:24.210Z,65.13
2019-04-04T21:07:16.106Z,65.13
2019-04-04T21:10:08.840Z,65.27
2019-04-04T21:12:58.586Z,65.31
2019-04-04T21:15:49.303Z,65.31
2019-04-04T21:18:43.489Z,65.34
2019-04-04T21:21:37.931Z,65.43
2019-04-04T21:24:29.874Z,65.44
2019-04-04T21:27:23.924Z,65.46
2019-04-04T21:30:13.929Z,65.48
2019-04-04T21:33:03.202Z,65.52
2019-04-04T21:35:52.703Z,65.54
2019-04-04T21:38:42.203Z,65.53
2019-04-04T21:41:31.583Z,65.58
2019-04-04T21:44:20.445Z,65.61
2019-04-04T21:47:10.089Z,65.64
2019-04-04T21:49:59.699Z,65.69
2019-04-04T21:52:49.376Z,65.66
2019-04-04T21:55:38.552Z,65.68
2019-04-04T21:58:27.248Z,65.75
2019-04-04T22:01:17.051Z,65.69
2019-04-04T22:04:06.866Z,65.71
2019-04-04T22:06:55.628Z,65.83
2019-04-04T22:09:44.554Z,65.79
2019-04-04T22:12:34.942Z,65.76
2019-04-04T22:15:24.300Z,65.90
2019-04-04T22:18:12.914Z,65.85
2019-04-04T22:21:05.771Z,65.92
2019-04-04T22:23:55.479Z,65.87
2019-04-04T22:26:45.812Z,65.88
2019-04-04T22:29:35.677Z,65.97
2019-04-04T22:32:24.960Z,65.90
2019-04-04T22:35:14.689Z,65.96
2019-04-04T22:38:04.412Z,66.04
2019-04-04T22:40:53.193Z,66.02
2019-04-04T22:43:42.385Z,65.98
2019-04-04T22:46:32.251Z,66.11
2019-04-04T22:49:21.627Z,66.06
2019-04-04T22:52:11.366Z,66.14
2019-04-04T22:55:00.698Z,66.13
2019-04-04T22:57:50.279Z,66.14
2019-04-04T23:00:39.495Z,66.17
2019-04-04T23:03:29.521Z,66.09
2019-04-04T23:06:18.517Z,66.11
2019-04-04T23:09:08.505Z,66.21
2019-04-04T23:11:58.888Z,66.24
2019-04-04T23:14:49.159Z,66.21
2019-04-04T23:17:38.551Z,66.21
2019-04-04T23:20:27.423Z,66.30
2019-04-04T23:23:16.086Z,66.33
2019-04-04T23:26:05.618Z,66.34
2019-04-04T23:28:55.067Z,66.34
2019-04-04T23:31:44.882Z,66.34
2019-04-04T23:34:34.365Z,66.44
2019-04-04T23:37:23.497Z,66.41
2019-04-04T23:40:13.165Z,66.49
2019-04-04T23:43:03.167Z,66.48
2019-04-04T23:45:55.325Z,66.50
2019-04-04T23:48:44.901Z,66.45
2019-04-04T23:51:33.887Z,66.55
2019-04-04T23:54:22.866Z,66.59
2019-04-04T23:57:12.737Z,66.64
